CG George Cobb — NTVY — position and weather

sailwx.info

Track history (hours):
 
Tides and Currents Weather Stations Pressure Air Temp Water Temp Dewpoint Dewpoint Depression Visibility Wind Speed Wind Dir Waves Ship Positions

CG George Cobb

Last reported at 2017-Dec-10 05:25 UTC. Time now 2017-Dec-12 18:13 UTC.
Position N 33°13' W 117°44'.

Length 53 m; draft 2.7 m.

Type: Military. MMSI: 338921000.

Date/timePositionNaut miles runAvg speedWind from/ knotsBaromVisibWave heightAir tempDewpointWater temp
2017-Dec-10 05:25N 33°13' W 117°44'511.2
2017-Dec-10 04:59N 33°09' W 117°41'511.0
2017-Dec-10 04:30N 33°05' W 117°37'510.8
2017-Dec-10 04:00N 33°00' W 117°34'510.8
2017-Dec-10 03:30N 32°56' W 117°30'511.1
2017-Dec-10 03:00N 32°51' W 117°26'611.1
2017-Dec-10 02:30N 32°46' W 117°23'610.8
2017-Dec-10 01:59N 32°42' W 117°19'4 5.9
2017-Dec-10 01:18N 32°38' W 117°17'1 4.0
2017-Dec-10 01:00N 32°39' W 117°18'4 8.8
2017-Dec-10 00:30N 32°43' W 117°21'4 7.6
2017-Dec-10 00:00N 32°46' W 117°23'4 8.1
2017-Dec-09 23:30N 32°42' W 117°23'2 4.9
2017-Dec-09 23:00N 32°39' W 117°22'3 4.5
2017-Dec-09 22:15N 32°37' W 117°19'0 1.5
2017-Dec-09 22:00N 32°37' W 117°18'0 0.3
2017-Dec-09 21:27N 32°37' W 117°18'5 0.3
2017-Dec-09 03:35N 32°39' W 117°12'0 0.0
2017-Dec-09 03:24N 32°39' W 117°12'0 0.0
2017-Dec-09 02:58N 32°39' W 117°12'4 5.4
2017-Dec-09 02:17N 32°36' W 117°15'2 7.3
2017-Dec-09 01:58N 32°37' W 117°18'4 7.5
2017-Dec-09 01:29N 32°39' W 117°22'3 5.6
2017-Dec-09 01:00N 32°40' W 117°24'2 4.0
2017-Dec-09 00:31N 32°41' W 117°26'4 6.9
2017-Dec-08 23:56N 32°39' W 117°23'2 2.9
2017-Dec-08 23:17N 32°38' W 117°21'2 6.3
2017-Dec-08 23:00N 32°39' W 117°23'3 6.4
2017-Dec-08 22:31N 32°39' W 117°26'3 5.3
2017-Dec-08 22:00N 32°39' W 117°23'9 0.2
2017-Dec-06 23:00N 32°42' W 117°14'2 1.2
2017-Dec-06 21:05N 32°40' W 117°14'0 0.0
2017-Dec-06 21:00N 32°40' W 117°14'  
2017-Dec-02 00:37N 33°43' W 118°16'0 0.0
2017-Dec-02 00:25N 33°43' W 118°16'0 0.0
2017-Dec-01 23:55N 33°43' W 118°16'0 0.0
2017-Dec-01 23:25N 33°43' W 118°16'0 0.0
2017-Dec-01 22:43N 33°43' W 118°16'  
Track history (hours):
 
Tides and Currents Weather Stations Pressure Air Temp Water Temp Dewpoint Dewpoint Depression Visibility Wind Speed Wind Dir Waves Ship Positions

CG George Cobb

Last reported at 2017-Dec-10 05:25 UTC. Time now 2017-Dec-12 18:13 UTC.
Position N 33°13' W 117°44'.

Length 53 m; draft 2.7 m.

Type: Military. MMSI: 338921000.

Date/timePositionNaut miles runAvg speedWind from/ knotsBaromVisibWave heightAir tempDewpointWater temp
2017-Dec-10 05:25N 33°13' W 117°44'511.2
2017-Dec-10 04:59N 33°09' W 117°41'511.0
2017-Dec-10 04:30N 33°05' W 117°37'510.8
2017-Dec-10 04:00N 33°00' W 117°34'510.8
2017-Dec-10 03:30N 32°56' W 117°30'511.1
2017-Dec-10 03:00N 32°51' W 117°26'611.1
2017-Dec-10 02:30N 32°46' W 117°23'610.8
2017-Dec-10 01:59N 32°42' W 117°19'4 5.9
2017-Dec-10 01:18N 32°38' W 117°17'1 4.0
2017-Dec-10 01:00N 32°39' W 117°18'4 8.8
2017-Dec-10 00:30N 32°43' W 117°21'4 7.6
2017-Dec-10 00:00N 32°46' W 117°23'4 8.1
2017-Dec-09 23:30N 32°42' W 117°23'2 4.9
2017-Dec-09 23:00N 32°39' W 117°22'3 4.5
2017-Dec-09 22:15N 32°37' W 117°19'0 1.5
2017-Dec-09 22:00N 32°37' W 117°18'0 0.3
2017-Dec-09 21:27N 32°37' W 117°18'5 0.3
2017-Dec-09 03:35N 32°39' W 117°12'0 0.0
2017-Dec-09 03:24N 32°39' W 117°12'0 0.0
2017-Dec-09 02:58N 32°39' W 117°12'4 5.4
2017-Dec-09 02:17N 32°36' W 117°15'2 7.3
2017-Dec-09 01:58N 32°37' W 117°18'4 7.5
2017-Dec-09 01:29N 32°39' W 117°22'3 5.6
2017-Dec-09 01:00N 32°40' W 117°24'2 4.0
2017-Dec-09 00:31N 32°41' W 117°26'4 6.9
2017-Dec-08 23:56N 32°39' W 117°23'2 2.9
2017-Dec-08 23:17N 32°38' W 117°21'2 6.3
2017-Dec-08 23:00N 32°39' W 117°23'3 6.4
2017-Dec-08 22:31N 32°39' W 117°26'3 5.3
2017-Dec-08 22:00N 32°39' W 117°23'9 0.2
2017-Dec-06 23:00N 32°42' W 117°14'2 1.2
2017-Dec-06 21:05N 32°40' W 117°14'0 0.0
2017-Dec-06 21:00N 32°40' W 117°14'  
2017-Dec-02 00:37N 33°43' W 118°16'0 0.0
2017-Dec-02 00:25N 33°43' W 118°16'0 0.0
2017-Dec-01 23:55N 33°43' W 118°16'0 0.0
2017-Dec-01 23:25N 33°43' W 118°16'0 0.0
2017-Dec-01 22:43N 33°43' W 118°16'  

Dump ship's entire track history